createdAt,value
2019-01-27T00:01:27.711Z,6.37
2019-01-27T00:03:57.505Z,8.43
2019-01-27T00:06:27.447Z,6.80
2019-01-27T00:08:57.199Z,5.60
2019-01-27T00:11:27.419Z,5.47
2019-01-27T00:13:57.497Z,5.50
2019-01-27T00:16:27.628Z,7.20
2019-01-27T00:18:57.551Z,7.20
2019-01-27T00:21:27.550Z,6.10
2019-01-27T00:23:57.386Z,5.60
2019-01-27T00:26:27.713Z,7.63
2019-01-27T00:28:57.914Z,8.00
2019-01-27T00:31:27.913Z,7.33
2019-01-27T00:33:57.987Z,9.80
2019-01-27T00:36:27.721Z,6.60
2019-01-27T00:38:57.940Z,5.83
2019-01-27T00:41:27.771Z,6.67
2019-01-27T00:43:57.704Z,7.37
2019-01-27T00:46:27.950Z,7.60
2019-01-27T00:48:57.815Z,6.97
2019-01-27T00:51:28.268Z,7.40
2019-01-27T00:53:58.044Z,9.33
2019-01-27T00:56:28.119Z,7.70
2019-01-27T00:58:58.062Z,9.23
2019-01-27T01:01:28.021Z,8.40
2019-01-27T01:03:58.147Z,8.90
2019-01-27T01:06:28.106Z,8.40
2019-01-27T01:08:57.969Z,8.80
2019-01-27T01:11:27.769Z,9.53
2019-01-27T01:13:57.605Z,9.63
2019-01-27T01:16:27.589Z,9.13
2019-01-27T01:18:59.573Z,8.67
2019-01-27T01:21:29.816Z,8.40
2019-01-27T01:23:59.730Z,6.57
2019-01-27T01:26:29.578Z,7.47
2019-01-27T01:28:59.685Z,7.13
2019-01-27T01:31:30.819Z,7.47
2019-01-27T01:34:01.016Z,8.30
2019-01-27T01:36:30.854Z,6.73
2019-01-27T01:39:00.833Z,5.97
2019-01-27T01:41:30.938Z,5.00
2019-01-27T01:44:00.921Z,6.37
2019-01-27T01:46:30.818Z,6.47
2019-01-27T01:49:00.489Z,9.50
2019-01-27T01:51:30.610Z,9.03
2019-01-27T01:54:00.681Z,7.93
2019-01-27T01:56:30.745Z,10.27
2019-01-27T01:59:00.557Z,8.43
2019-01-27T02:01:30.453Z,11.33
2019-01-27T02:04:00.486Z,9.03
2019-01-27T02:06:31.526Z,9.27
2019-01-27T02:09:01.425Z,9.60
2019-01-27T02:11:31.669Z,10.70
2019-01-27T02:14:01.684Z,10.13
2019-01-27T02:16:32.042Z,13.00
2019-01-27T02:19:02.184Z,11.93
2019-01-27T02:21:32.013Z,12.67
2019-01-27T02:24:01.806Z,13.27
2019-01-27T02:26:31.826Z,11.67
2019-01-27T02:29:01.673Z,12.40
2019-01-27T02:31:31.546Z,13.13
2019-01-27T02:34:01.602Z,14.37
2019-01-27T02:36:31.684Z,14.27
2019-01-27T02:39:01.429Z,12.37
2019-01-27T02:41:32.987Z,15.53
2019-01-27T02:44:02.846Z,13.97
2019-01-27T02:46:32.896Z,13.03
2019-01-27T02:49:03.020Z,14.40
2019-01-27T02:51:32.796Z,13.03
2019-01-27T02:54:04.767Z,10.73
2019-01-27T02:56:34.475Z,12.20
2019-01-27T02:59:04.777Z,12.10
2019-01-27T03:01:38.174Z,11.70
2019-01-27T03:04:08.995Z,12.63
2019-01-27T03:06:51.800Z,13.33
2019-01-27T03:09:30.704Z,10.90
2019-01-27T03:12:00.466Z,10.90
2019-01-27T03:14:30.931Z,8.20
2019-01-27T03:17:01.032Z,8.03
2019-01-27T03:19:31.090Z,9.47
2019-01-27T03:22:00.919Z,9.43
2019-01-27T03:24:30.981Z,8.87
2019-01-27T03:27:01.110Z,8.70
2019-01-27T03:29:30.897Z,9.20
2019-01-27T03:32:00.661Z,8.03
2019-01-27T03:34:31.277Z,8.33
2019-01-27T03:37:01.084Z,8.43
2019-01-27T03:39:32.257Z,7.27
2019-01-27T03:42:02.783Z,8.13
2019-01-27T03:44:32.541Z,8.10
2019-01-27T03:47:02.611Z,7.93
2019-01-27T03:49:32.441Z,11.00
2019-01-27T03:52:02.317Z,9.23
2019-01-27T03:54:35.765Z,8.77
2019-01-27T03:57:05.821Z,8.47
2019-01-27T03:59:35.870Z,9.63
2019-01-27T04:02:05.819Z,10.63
2019-01-27T04:04:35.539Z,11.70
2019-01-27T04:07:05.378Z,10.50
2019-01-27T04:09:35.097Z,12.97
2019-01-27T04:12:05.061Z,11.50
2019-01-27T04:14:34.862Z,12.23
2019-01-27T04:17:04.942Z,12.30
2019-01-27T04:19:34.630Z,12.07
2019-01-27T04:22:04.535Z,11.37
2019-01-27T04:24:34.275Z,12.10
2019-01-27T04:27:04.091Z,11.90
2019-01-27T04:29:34.191Z,13.07
2019-01-27T04:32:03.951Z,13.43
2019-01-27T04:34:33.645Z,12.30
2019-01-27T04:37:03.683Z,13.77
2019-01-27T04:39:33.431Z,12.17
2019-01-27T04:42:03.325Z,11.63
2019-01-27T04:44:33.085Z,11.87
2019-01-27T04:47:02.778Z,10.10
2019-01-27T04:49:32.710Z,10.77
2019-01-27T04:52:02.771Z,10.93
2019-01-27T04:54:32.496Z,12.07
2019-01-27T04:57:02.363Z,11.97
2019-01-27T04:59:32.046Z,9.23
2019-01-27T05:02:01.997Z,12.43
2019-01-27T05:04:34.610Z,12.53
2019-01-27T05:07:04.816Z,10.30
2019-01-27T05:09:34.802Z,12.30
2019-01-27T05:12:05.517Z,10.73
2019-01-27T05:14:36.226Z,8.53
2019-01-27T05:17:06.063Z,10.87
2019-01-27T05:19:35.987Z,8.77
2019-01-27T05:22:05.830Z,7.67
2019-01-27T05:24:35.531Z,8.77
2019-01-27T05:27:05.397Z,8.77
2019-01-27T05:29:35.704Z,7.87
2019-01-27T05:32:05.777Z,8.80
2019-01-27T05:34:35.504Z,9.60
2019-01-27T05:37:05.258Z,10.40
2019-01-27T05:39:34.946Z,7.67
2019-01-27T05:42:04.791Z,10.07
2019-01-27T05:44:34.728Z,8.17
2019-01-27T05:47:04.486Z,10.93
2019-01-27T05:49:34.519Z,10.37
2019-01-27T05:52:04.465Z,10.87
2019-01-27T05:54:34.249Z,10.23
2019-01-27T05:57:03.998Z,11.57
2019-01-27T05:59:34.025Z,7.73
2019-01-27T06:02:03.982Z,9.10
2019-01-27T06:04:33.687Z,9.50
2019-01-27T06:07:03.507Z,8.47
2019-01-27T06:09:33.990Z,11.23
2019-01-27T06:12:03.831Z,8.93
2019-01-27T06:14:33.531Z,10.07
2019-01-27T06:17:03.310Z,9.20
2019-01-27T06:19:33.061Z,8.23
2019-01-27T06:22:03.099Z,8.63
2019-01-27T06:24:32.814Z,9.33
2019-01-27T06:27:02.573Z,9.40
2019-01-27T06:29:32.258Z,10.67
2019-01-27T06:32:02.347Z,11.93
2019-01-27T06:34:32.115Z,9.43
2019-01-27T06:37:01.802Z,10.13
2019-01-27T06:39:31.913Z,12.73
2019-01-27T06:42:01.987Z,10.40
2019-01-27T06:44:31.698Z,11.77
2019-01-27T06:47:01.402Z,10.33
2019-01-27T06:49:31.658Z,10.93
2019-01-27T06:52:01.674Z,11.13
2019-01-27T06:54:31.646Z,11.23
2019-01-27T06:57:01.610Z,10.87
2019-01-27T07:00:08.614Z,12.27
2019-01-27T07:02:52.938Z,10.63
2019-01-27T07:05:45.704Z,10.80
2019-01-27T07:08:30.942Z,10.67
2019-01-27T07:11:14.306Z,10.27
2019-01-27T07:14:03.077Z,9.77
2019-01-27T07:17:04.271Z,9.93
2019-01-27T07:19:53.938Z,10.53
2019-01-27T07:22:28.961Z,13.50
2019-01-27T07:25:30.118Z,11.07
2019-01-27T07:28:28.411Z,11.13
2019-01-27T07:31:11.191Z,12.70
2019-01-27T07:34:05.909Z,10.77
2019-01-27T07:36:57.555Z,11.40
2019-01-27T07:39:45.027Z,9.07
2019-01-27T07:42:28.477Z,9.23
2019-01-27T07:45:08.653Z,9.07
2019-01-27T07:47:52.419Z,10.57
2019-01-27T07:50:36.310Z,8.00
2019-01-27T07:53:22.323Z,11.27
2019-01-27T07:56:12.283Z,9.23
2019-01-27T07:59:02.942Z,7.83
2019-01-27T08:01:50.686Z,8.00
2019-01-27T08:04:38.698Z,8.70
2019-01-27T08:07:26.774Z,7.90
2019-01-27T08:10:06.837Z,9.17
2019-01-27T08:12:48.567Z,7.43
2019-01-27T08:15:45.156Z,7.87
2019-01-27T08:18:21.197Z,8.63
2019-01-27T08:21:12.825Z,8.87
2019-01-27T08:24:08.152Z,7.50
2019-01-27T08:26:55.748Z,6.47
2019-01-27T08:29:33.725Z,9.07
2019-01-27T08:32:22.830Z,7.83
2019-01-27T08:35:09.545Z,6.70
2019-01-27T08:37:49.982Z,8.13
2019-01-27T08:40:31.016Z,13.90
2019-01-27T08:43:17.115Z,14.70
2019-01-27T08:45:54.615Z,9.87
2019-01-27T08:48:24.355Z,9.90
2019-01-27T08:50:54.038Z,8.83
2019-01-27T08:53:24.085Z,8.67
2019-01-27T08:55:54.110Z,8.77
2019-01-27T08:58:23.867Z,8.90
2019-01-27T09:01:00.744Z,7.30
2019-01-27T09:03:55.531Z,7.43
2019-01-27T09:06:35.515Z,6.70
2019-01-27T09:09:39.830Z,11.10
2019-01-27T09:12:19.654Z,5.93
2019-01-27T09:14:59.798Z,7.20
2019-01-27T09:17:53.585Z,5.83
2019-01-27T09:20:55.946Z,10.57
2019-01-27T09:24:03.173Z,7.77
2019-01-27T09:26:41.015Z,7.03
2019-01-27T09:29:18.029Z,6.20
2019-01-27T09:31:58.622Z,16.77
2019-01-27T09:34:47.389Z,9.00
2019-01-27T09:37:35.016Z,6.93
2019-01-27T09:40:33.107Z,6.07
2019-01-27T09:43:22.037Z,6.10
2019-01-27T09:46:23.761Z,7.93
2019-01-27T09:49:00.995Z,6.00
2019-01-27T09:51:58.927Z,7.17
2019-01-27T09:54:43.101Z,4.53
2019-01-27T09:57:47.436Z,5.03
2019-01-27T10:00:40.031Z,5.33
2019-01-27T10:03:34.370Z,10.63
2019-01-27T10:06:21.410Z,19.30
2019-01-27T10:09:10.972Z,4.97
2019-01-27T10:12:11.718Z,5.00
2019-01-27T10:15:18.711Z,4.10
2019-01-27T10:17:55.326Z,4.57
2019-01-27T10:20:56.006Z,3.50
2019-01-27T10:23:56.273Z,3.80
2019-01-27T10:27:00.777Z,3.37
2019-01-27T10:29:40.989Z,4.00
2019-01-27T10:32:28.781Z,3.50
2019-01-27T10:35:10.094Z,3.13
2019-01-27T10:38:08.106Z,7.00
2019-01-27T10:40:46.186Z,10.27
2019-01-27T10:43:37.829Z,6.50
2019-01-27T10:46:28.377Z,5.37
2019-01-27T10:49:16.241Z,4.23
2019-01-27T10:51:54.786Z,2.90
2019-01-27T10:54:52.762Z,2.97
2019-01-27T10:57:33.302Z,2.73
2019-01-27T11:00:31.278Z,2.67
2019-01-27T11:03:23.304Z,2.87
2019-01-27T11:06:01.175Z,2.00
2019-01-27T11:08:43.825Z,3.47
2019-01-27T11:11:27.425Z,4.00
2019-01-27T11:14:07.826Z,5.60
2019-01-27T11:17:00.395Z,7.37
2019-01-27T11:19:45.221Z,2.60
2019-01-27T11:22:31.274Z,3.00
2019-01-27T11:25:10.025Z,3.70
2019-01-27T11:28:08.473Z,4.13
2019-01-27T11:31:00.078Z,3.73
2019-01-27T11:33:49.121Z,5.43
2019-01-27T11:36:34.499Z,5.53
2019-01-27T11:39:24.816Z,3.17
2019-01-27T11:42:11.798Z,5.07
2019-01-27T11:45:03.543Z,6.83
2019-01-27T11:48:07.516Z,7.23
2019-01-27T11:50:42.246Z,3.03
2019-01-27T11:53:12.573Z,4.13
2019-01-27T11:55:42.437Z,3.43
2019-01-27T11:58:12.270Z,2.83
2019-01-27T12:00:45.846Z,5.17
2019-01-27T12:03:15.855Z,2.83
2019-01-27T12:05:45.711Z,2.93
2019-01-27T12:08:15.519Z,2.60
2019-01-27T12:10:46.110Z,5.50
2019-01-27T12:13:16.061Z,7.90
2019-01-27T12:15:45.778Z,2.67
2019-01-27T12:18:15.753Z,2.37
2019-01-27T12:20:45.514Z,3.87
2019-01-27T12:23:15.501Z,3.17
2019-01-27T12:25:45.252Z,3.50
2019-01-27T12:28:15.054Z,5.67
2019-01-27T12:30:45.254Z,1.40
2019-01-27T12:33:15.265Z,1.80
2019-01-27T12:35:45.107Z,3.80
2019-01-27T12:38:15.085Z,1.20
2019-01-27T12:40:44.864Z,1.53
2019-01-27T12:43:14.604Z,1.20
2019-01-27T12:45:46.112Z,0.67
2019-01-27T12:48:16.153Z,1.20
2019-01-27T12:50:46.263Z,1.10
2019-01-27T12:53:16.849Z,1.50
2019-01-27T12:55:46.645Z,0.93
2019-01-27T12:58:16.799Z,1.97
2019-01-27T13:00:59.529Z,1.70
2019-01-27T13:03:29.459Z,1.33
2019-01-27T13:05:59.715Z,1.33
2019-01-27T13:08:29.554Z,2.83
2019-01-27T13:10:59.565Z,2.47
2019-01-27T13:13:29.603Z,1.33
2019-01-27T13:15:59.393Z,1.67
2019-01-27T13:18:29.522Z,2.83
2019-01-27T13:20:59.307Z,1.10
2019-01-27T13:23:29.186Z,7.33
2019-01-27T13:25:59.150Z,3.77
2019-01-27T13:28:29.005Z,1.17
2019-01-27T13:30:58.891Z,1.90
2019-01-27T13:33:28.688Z,5.57
2019-01-27T13:35:58.676Z,5.30
2019-01-27T13:38:28.998Z,5.00
2019-01-27T13:40:58.876Z,2.67
2019-01-27T13:43:28.785Z,4.60
2019-01-27T13:45:58.724Z,2.77
2019-01-27T13:48:28.517Z,3.77
2019-01-27T13:50:58.871Z,1.57
2019-01-27T13:53:28.664Z,2.77
2019-01-27T13:55:59.879Z,3.03
2019-01-27T13:58:29.666Z,3.67
2019-01-27T14:00:59.598Z,2.07
2019-01-27T14:03:29.413Z,3.40
2019-01-27T14:05:59.361Z,3.37
2019-01-27T14:08:29.140Z,2.20
2019-01-27T14:11:04.092Z,1.93
2019-01-27T14:13:34.571Z,2.57
2019-01-27T14:16:06.906Z,5.63
2019-01-27T14:18:37.415Z,1.90
2019-01-27T14:21:07.340Z,2.53
2019-01-27T14:23:42.734Z,1.17
2019-01-27T14:26:14.463Z,2.63
2019-01-27T14:28:44.251Z,3.63
2019-01-27T14:31:14.637Z,4.00
2019-01-27T14:33:44.795Z,2.30
2019-01-27T14:36:18.143Z,5.30
2019-01-27T14:38:48.107Z,2.97
2019-01-27T14:41:18.321Z,3.30
2019-01-27T14:43:48.127Z,2.70
2019-01-27T14:46:18.237Z,2.07
2019-01-27T14:48:48.317Z,3.47
2019-01-27T14:51:18.149Z,12.50
2019-01-27T14:53:47.849Z,2.77
2019-01-27T14:56:38.711Z,4.27
2019-01-27T14:59:09.129Z,3.20
2019-01-27T15:01:38.830Z,1.97
2019-01-27T15:04:08.867Z,4.33
2019-01-27T15:06:39.160Z,2.23
2019-01-27T15:09:09.762Z,1.53
2019-01-27T15:11:39.530Z,2.60
2019-01-27T15:14:09.426Z,2.50
2019-01-27T15:16:39.450Z,2.83
2019-01-27T15:19:09.318Z,2.63
2019-01-27T15:21:39.302Z,2.93
2019-01-27T15:24:10.198Z,1.50
2019-01-27T15:26:40.050Z,2.63
2019-01-27T15:29:10.492Z,6.10
2019-01-27T15:31:40.530Z,2.73
2019-01-27T15:34:10.208Z,3.37
2019-01-27T15:36:39.925Z,3.37
2019-01-27T15:39:10.820Z,2.50
2019-01-27T15:41:41.145Z,2.10
2019-01-27T15:44:11.262Z,3.03
2019-01-27T15:46:41.135Z,2.83
2019-01-27T15:49:10.916Z,3.07
2019-01-27T15:51:40.729Z,4.00
2019-01-27T15:54:10.652Z,5.83
2019-01-27T15:56:40.573Z,7.93
2019-01-27T15:59:10.656Z,3.27
2019-01-27T16:01:40.487Z,6.10
2019-01-27T16:04:10.286Z,2.63
2019-01-27T16:06:40.156Z,3.00
2019-01-27T16:09:10.154Z,3.20
2019-01-27T16:11:40.250Z,2.60
2019-01-27T16:14:10.281Z,2.37
2019-01-27T16:16:40.182Z,1.37
2019-01-27T16:19:09.878Z,2.10
2019-01-27T16:21:39.648Z,3.23
2019-01-27T16:24:28.174Z,3.80
2019-01-27T16:26:57.954Z,6.10
2019-01-27T16:29:59.305Z,4.37
2019-01-27T16:32:33.236Z,2.03
2019-01-27T16:35:06.396Z,6.70
2019-01-27T16:37:36.254Z,12.93
2019-01-27T16:40:09.382Z,5.93
2019-01-27T16:42:39.195Z,2.40
2019-01-27T16:45:10.932Z,5.00
2019-01-27T16:47:40.783Z,5.83
2019-01-27T16:50:13.090Z,3.97
2019-01-27T16:52:43.062Z,1.20
2019-01-27T16:55:14.256Z,3.83
2019-01-27T16:57:44.061Z,3.33
2019-01-27T17:00:21.063Z,3.60
2019-01-27T17:02:51.029Z,2.07
2019-01-27T17:05:20.776Z,3.77
2019-01-27T17:07:50.653Z,4.33
2019-01-27T17:10:21.094Z,2.73
2019-01-27T17:12:51.005Z,5.70
2019-01-27T17:15:20.869Z,3.43
2019-01-27T17:17:50.784Z,3.80
2019-01-27T17:20:25.514Z,4.10
2019-01-27T17:22:52.107Z,4.20
2019-01-27T17:25:21.966Z,6.17
2019-01-27T17:27:51.722Z,3.70
2019-01-27T17:30:22.992Z,4.37
2019-01-27T17:32:53.081Z,3.90
2019-01-27T17:35:23.651Z,3.40
2019-01-27T17:37:53.519Z,2.97
2019-01-27T17:40:23.393Z,5.17
2019-01-27T17:42:53.277Z,2.30
2019-01-27T17:45:23.317Z,1.87
2019-01-27T17:47:53.096Z,1.70
2019-01-27T17:50:23.305Z,1.77
2019-01-27T17:52:53.710Z,3.60
2019-01-27T17:55:39.169Z,2.23
2019-01-27T17:58:38.125Z,3.43
2019-01-27T18:01:39.416Z,1.77
2019-01-27T18:04:31.045Z,2.23
2019-01-27T18:07:38.037Z,2.70
2019-01-27T18:10:28.234Z,1.63
2019-01-27T18:13:05.997Z,3.30
2019-01-27T18:15:35.745Z,2.17
2019-01-27T18:18:05.832Z,4.83
2019-01-27T18:20:35.549Z,9.73
2019-01-27T18:23:05.654Z,4.33
2019-01-27T18:25:36.063Z,2.90
2019-01-27T18:28:06.154Z,5.10
2019-01-27T18:30:36.045Z,5.47
2019-01-27T18:33:05.862Z,5.13
2019-01-27T18:35:35.616Z,4.37
2019-01-27T18:38:05.771Z,6.20
2019-01-27T18:40:35.901Z,3.97
2019-01-27T18:43:05.714Z,2.30
2019-01-27T18:45:35.578Z,3.30
2019-01-27T18:48:05.923Z,2.73
2019-01-27T18:50:36.106Z,26.07
2019-01-27T18:53:15.912Z,3.57
2019-01-27T18:55:54.922Z,2.23
2019-01-27T18:58:43.814Z,1.90
2019-01-27T19:01:35.558Z,2.90
2019-01-27T19:04:11.510Z,4.70
2019-01-27T19:07:12.414Z,1.50
2019-01-27T19:10:07.416Z,46.40
2019-01-27T19:12:56.324Z,31.73
2019-01-27T19:15:44.993Z,1.60
2019-01-27T19:18:27.859Z,1.47
2019-01-27T19:21:04.828Z,1.73
2019-01-27T19:23:48.695Z,1.93
2019-01-27T19:26:29.172Z,1.43
2019-01-27T19:29:06.417Z,1.67
2019-01-27T19:31:55.312Z,1.30
2019-01-27T19:34:46.514Z,1.30
2019-01-27T19:37:34.164Z,1.40
2019-01-27T19:40:20.614Z,1.50
2019-01-27T19:42:58.109Z,1.73
2019-01-27T19:45:55.365Z,1.27
2019-01-27T19:48:44.163Z,3.13
2019-01-27T19:51:48.155Z,2.13
2019-01-27T19:54:34.779Z,0.80
2019-01-27T19:57:16.865Z,1.47
2019-01-27T20:00:04.307Z,1.20
2019-01-27T20:02:53.329Z,1.20
2019-01-27T20:05:36.077Z,1.17
2019-01-27T20:08:15.689Z,1.57
2019-01-27T20:11:13.597Z,1.20
2019-01-27T20:13:50.930Z,1.77
2019-01-27T20:16:38.369Z,1.60
2019-01-27T20:19:16.910Z,1.70
2019-01-27T20:21:53.582Z,8.10
2019-01-27T20:24:41.198Z,16.43
2019-01-27T20:27:36.062Z,22.20
2019-01-27T20:30:27.823Z,2.77
2019-01-27T20:33:29.067Z,1.80
2019-01-27T20:36:06.561Z,2.33
2019-01-27T20:38:56.766Z,1.60
2019-01-27T20:41:36.539Z,1.17
2019-01-27T20:44:13.361Z,1.40
2019-01-27T20:46:58.278Z,1.87
2019-01-27T20:49:36.901Z,3.07
2019-01-27T20:52:24.809Z,1.83
2019-01-27T20:55:12.394Z,3.30
2019-01-27T20:58:10.549Z,2.00
2019-01-27T21:00:48.557Z,1.57
2019-01-27T21:03:28.548Z,2.00
2019-01-27T21:06:15.990Z,1.47
2019-01-27T21:09:07.800Z,1.90
2019-01-27T21:11:55.720Z,1.13
2019-01-27T21:14:50.481Z,1.60
2019-01-27T21:17:37.750Z,1.90
2019-01-27T21:20:15.178Z,1.90
2019-01-27T21:22:45.089Z,1.43
2019-01-27T21:25:15.270Z,1.43
2019-01-27T21:27:45.122Z,1.47
2019-01-27T21:30:16.391Z,1.17
2019-01-27T21:32:46.330Z,2.13
2019-01-27T21:35:16.458Z,3.23
2019-01-27T21:37:46.401Z,2.80
2019-01-27T21:40:18.263Z,1.30
2019-01-27T21:42:48.317Z,1.27
2019-01-27T21:45:18.361Z,1.10
2019-01-27T21:47:48.145Z,1.30
2019-01-27T21:50:19.770Z,1.03
2019-01-27T21:52:50.053Z,1.00
2019-01-27T21:55:19.859Z,0.80
2019-01-27T21:57:49.697Z,1.17
2019-01-27T22:00:21.880Z,1.03
2019-01-27T22:02:51.670Z,0.90
2019-01-27T22:05:21.587Z,1.63
2019-01-27T22:07:51.613Z,1.27
2019-01-27T22:10:21.373Z,0.87
2019-01-27T22:12:52.429Z,0.80
2019-01-27T22:15:22.628Z,0.80
2019-01-27T22:17:52.622Z,0.90
2019-01-27T22:20:22.474Z,0.80
2019-01-27T22:22:52.383Z,1.07
2019-01-27T22:25:22.517Z,0.90
2019-01-27T22:27:52.314Z,0.97
2019-01-27T22:30:22.414Z,0.90
2019-01-27T22:32:52.161Z,1.57
2019-01-27T22:35:22.229Z,1.10
2019-01-27T22:37:52.134Z,1.13
2019-01-27T22:40:22.423Z,1.60
2019-01-27T22:42:52.430Z,1.27
2019-01-27T22:45:22.527Z,1.37
2019-01-27T22:47:55.211Z,1.03
2019-01-27T22:50:25.286Z,1.20
2019-01-27T22:52:55.018Z,1.67
2019-01-27T22:55:25.042Z,1.00
2019-01-27T22:57:54.809Z,0.97
2019-01-27T23:00:58.694Z,2.70
2019-01-27T23:03:30.574Z,1.07
2019-01-27T23:06:00.513Z,1.10
2019-01-27T23:08:30.317Z,1.10
2019-01-27T23:11:00.400Z,1.50
2019-01-27T23:13:30.116Z,1.10
2019-01-27T23:16:00.506Z,1.40
2019-01-27T23:18:30.526Z,1.00
2019-01-27T23:21:00.597Z,2.10
2019-01-27T23:23:30.562Z,1.30
2019-01-27T23:26:00.739Z,4.80
2019-01-27T23:28:30.457Z,1.40
2019-01-27T23:31:00.259Z,1.43
2019-01-27T23:33:30.170Z,1.70
2019-01-27T23:35:59.879Z,1.60
2019-01-27T23:38:29.617Z,2.27
2019-01-27T23:40:59.409Z,1.77
2019-01-27T23:43:29.085Z,1.93
2019-01-27T23:45:58.934Z,1.60
2019-01-27T23:48:32.083Z,1.50
2019-01-27T23:51:07.261Z,1.60
2019-01-27T23:53:43.800Z,2.37
2019-01-27T23:56:16.498Z,1.73
2019-01-27T23:58:46.788Z,1.50
